createdAt,value
2023-02-17T08:37:11.010Z,100046.50
2023-02-17T12:36:55.159Z,99850.44
2023-02-17T12:39:24.778Z,99845.91
2023-02-17T12:45:16.440Z,99854.72
2023-02-17T12:54:01.546Z,99852.25
2023-02-17T12:57:03.620Z,99857.91
2023-02-17T12:59:30.183Z,99855.25
2023-02-17T13:02:05.477Z,99848.25
2023-02-17T13:04:33.726Z,99839.78
2023-02-17T13:07:15.399Z,99831.31
2023-02-17T13:09:44.832Z,99819.59
2023-02-17T13:12:23.352Z,99837.09
2023-02-17T13:14:55.321Z,99824.38
2023-02-17T13:17:24.987Z,99827.31
2023-02-17T13:20:21.274Z,99812.91
2023-02-17T13:22:48.198Z,99809.66
2023-02-17T13:25:30.022Z,99809.78
2023-02-17T13:27:58.574Z,99796.00
2023-02-17T13:30:38.766Z,99801.53
2023-02-17T13:33:28.919Z,99795.59
2023-02-17T13:35:55.655Z,99800.25
2023-02-17T13:38:30.908Z,99797.03
2023-02-17T13:41:01.027Z,99809.75
2023-02-17T13:43:30.769Z,99815.16
2023-02-17T13:46:03.348Z,99803.81
2023-02-17T13:48:35.039Z,99803.56
2023-02-17T13:51:06.680Z,99804.38
2023-02-17T13:53:38.366Z,99796.41
2023-02-17T13:56:10.391Z,99800.66
2023-02-17T13:58:39.666Z,99804.88
2023-02-17T14:01:12.939Z,99804.75
2023-02-17T14:03:39.526Z,99801.72
2023-02-17T14:06:07.696Z,99804.19
2023-02-17T14:08:39.932Z,99804.34
2023-02-17T14:11:12.651Z,99806.50
2023-02-17T14:13:42.363Z,99790.22
2023-02-17T14:16:27.791Z,99791.50
2023-02-17T14:19:09.063Z,99787.59
2023-02-17T14:21:41.006Z,99796.44
2023-02-17T14:24:09.771Z,99796.84
2023-02-17T14:26:45.184Z,99787.31
2023-02-17T14:29:13.500Z,99799.25
2023-02-17T14:31:51.515Z,99788.91
2023-02-17T14:34:21.015Z,99776.97
2023-02-17T14:36:47.801Z,99777.19
2023-02-17T14:39:15.866Z,99766.69
2023-02-17T14:41:43.078Z,99761.84
2023-02-17T14:50:33.026Z,99743.19
2023-02-17T14:52:59.770Z,99747.78
2023-02-17T14:55:34.314Z,99743.19
2023-02-17T14:58:01.273Z,99742.91
2023-02-17T15:00:28.184Z,99725.09
2023-02-17T15:02:54.901Z,99731.06
2023-02-17T15:05:21.530Z,99727.59
2023-02-17T15:07:48.368Z,99725.41
2023-02-17T15:13:19.983Z,99738.53
2023-02-17T15:15:47.874Z,99736.09
2023-02-17T15:18:16.423Z,99736.66
2023-02-17T15:20:45.306Z,99733.88
2023-02-17T15:26:03.917Z,99710.72
2023-02-17T15:28:30.622Z,99709.13
2023-02-17T15:30:57.460Z,99715.97
2023-02-17T15:33:24.825Z,99707.38
2023-02-17T15:35:53.771Z,99704.03
2023-02-17T15:41:25.069Z,99701.16
2023-02-17T15:43:52.326Z,99689.47
2023-02-17T15:46:20.497Z,99691.41
2023-02-17T15:51:46.799Z,99677.16
2023-02-17T15:54:13.751Z,99687.78
2023-02-17T15:56:45.497Z,99674.09
2023-02-17T16:46:07.545Z,99641.97
2023-02-17T17:23:20.992Z,99630.97
2023-02-17T17:25:48.627Z,99624.56
2023-02-17T17:31:12.875Z,99632.03
2023-02-17T17:33:41.594Z,99622.28
2023-02-17T17:39:23.635Z,99630.41
2023-02-17T17:41:51.121Z,99620.66
2023-02-17T17:44:18.974Z,99628.56
2023-02-17T17:46:45.674Z,99623.69
2023-02-17T17:55:10.953Z,99634.28
2023-02-17T17:57:39.459Z,99635.38
2023-02-17T18:55:46.962Z,99603.38
2023-02-17T18:58:24.072Z,99610.06
2023-02-17T19:00:50.811Z,99598.84
2023-02-17T19:06:21.517Z,99607.25
2023-02-17T19:08:48.915Z,99598.84
2023-02-17T19:11:17.313Z,99584.94
2023-02-17T19:13:47.583Z,99585.81
2023-02-17T19:16:17.666Z,99582.63
2023-02-17T19:18:45.375Z,99577.53
2023-02-17T19:21:17.096Z,99575.53
2023-02-17T19:23:44.396Z,99593.34
2023-02-17T19:26:13.079Z,99580.53
2023-02-17T19:28:40.755Z,99580.47
2023-02-17T19:31:10.013Z,99583.19
2023-02-17T19:33:36.972Z,99571.84
2023-02-17T19:36:11.123Z,99561.50
2023-02-17T19:38:37.909Z,99562.19
2023-02-17T19:41:07.851Z,99563.31
2023-02-17T19:43:34.723Z,99533.19
2023-02-17T19:46:01.529Z,99532.78
2023-02-17T19:48:28.438Z,99532.00
2023-02-17T19:51:03.036Z,99541.75
2023-02-17T19:53:31.647Z,99534.13
2023-02-17T19:56:17.097Z,99543.16
2023-02-17T19:58:46.265Z,99551.28
2023-02-17T20:01:19.553Z,99561.25
2023-02-17T20:03:51.025Z,99571.34
2023-02-17T20:06:21.847Z,99563.03
2023-02-17T20:09:02.790Z,99579.16
2023-02-17T20:11:30.613Z,99557.78
2023-02-17T20:14:11.249Z,99562.91
2023-02-17T20:17:03.704Z,99593.34
2023-02-17T20:19:38.437Z,99570.13
2023-02-17T20:22:06.516Z,99556.66
2023-02-17T20:24:35.431Z,99573.09
2023-02-17T20:27:02.167Z,99573.94
2023-02-17T20:29:29.166Z,99575.50
2023-02-17T20:31:55.915Z,99587.38
2023-02-17T20:34:39.185Z,99588.19
2023-02-17T20:37:08.033Z,99596.06
2023-02-17T20:39:35.834Z,99605.94
2023-02-17T20:42:03.222Z,99608.72
2023-02-17T20:44:29.972Z,99613.31
2023-02-17T20:46:57.234Z,99619.13
2023-02-17T20:49:24.238Z,99602.81
2023-02-17T20:51:59.843Z,99622.28
2023-02-17T20:54:27.114Z,99618.03
2023-02-17T20:56:53.878Z,99623.25
2023-02-17T20:59:20.752Z,99621.16
2023-02-17T21:01:47.362Z,99632.94
2023-02-17T21:04:14.094Z,99620.25
2023-02-17T21:16:04.111Z,99603.25
2023-02-17T21:18:38.675Z,99635.00
2023-02-17T21:21:10.386Z,99639.59
2023-02-17T21:23:39.899Z,99646.84
2023-02-17T21:28:53.012Z,99651.91
2023-02-17T21:31:23.249Z,99657.66
2023-02-17T21:33:51.497Z,99658.56
2023-02-17T21:36:18.339Z,99668.31
2023-02-17T21:38:45.752Z,99660.66
2023-02-17T21:41:25.791Z,99679.53
2023-02-17T21:44:13.072Z,99689.06
2023-02-17T21:55:21.335Z,99702.66
2023-02-17T23:03:18.727Z,99696.63
2023-02-17T23:05:46.845Z,99695.63
2023-02-17T23:08:13.668Z,99686.94
2023-02-17T23:10:41.774Z,99687.34
2023-02-17T23:13:08.890Z,99702.72
2023-02-17T23:15:39.941Z,99698.78
2023-02-17T23:18:11.580Z,99687.47
2023-02-17T23:20:40.735Z,99692.69
2023-02-17T23:23:07.653Z,99687.13
2023-02-17T23:25:34.758Z,99685.94
2023-02-17T23:28:02.773Z,99695.19
2023-02-17T23:30:29.473Z,99683.75
2023-02-17T23:32:56.120Z,99684.69
2023-02-17T23:35:23.065Z,99692.75
2023-02-17T23:37:51.069Z,99689.47
2023-02-17T23:40:18.479Z,99692.75
2023-02-17T23:42:45.443Z,99690.59
2023-02-17T23:45:17.618Z,99687.31
2023-02-17T23:47:45.359Z,99690.75
2023-02-17T23:50:11.975Z,99686.69
2023-02-17T23:52:38.601Z,99699.00
2023-02-17T23:55:06.045Z,99709.56
2023-02-17T23:57:39.230Z,99682.44
